Estación de San Rafael

Ultimos registro cada 15 minutos 64
Estación Fecha / Hora Temperatura Humedad Lluvia Velocidad Dirección Radiación Presion
64 San Rafael 01-09-2026 15:45 22,2 51,5 0 0,5 161 415,6 999,2
63 San Rafael 01-09-2026 15:30 22,8 51,5 0 0,5 145 235,6 998,9
62 San Rafael 01-09-2026 15:15 23,6 49,6 0 0 63 700,6 998,8
61 San Rafael 01-09-2026 15:00 22,7 53,6 0 0,5 100 425,6 999,1
60 San Rafael 01-09-2026 14:45 22,6 55,8 0 0 45 588,1 999,3
59 San Rafael 01-09-2026 14:30 23,4 51,4 0 0 38 751,9 999,6
58 San Rafael 01-09-2026 14:15 22 57,2 0 0 79 895,6 999,7
57 San Rafael 01-09-2026 14:00 22,2 54,6 0 0,5 146 623,1 999,7
56 San Rafael 01-09-2026 13:45 22,8 54,2 0 0 167 884,4 999,9
55 San Rafael 01-09-2026 13:30 22 57,1 0 0,5 171 520,6 1000,5
54 San Rafael 01-09-2026 13:15 21,3 58,2 0 0 95 956,9 1000,8
53 San Rafael 01-09-2026 13:00 20,3 60,4 0 0,5 136 689,4 1001,3
52 San Rafael 01-09-2026 12:45 20 61,3 0 0,5 157 376,9 1001,7
51 San Rafael 01-09-2026 12:30 20,4 62,9 0 0 3 238,1 1001,8
50 San Rafael 01-09-2026 12:15 20,4 64,1 0 0 345 65,6 1002,2
49 San Rafael 01-09-2026 12:00 20,3 63,4 0 0 230 65,6 1002,4
48 San Rafael 01-09-2026 11:45 20,3 63,2 0 0 222 58,1 1002,4
47 San Rafael 01-09-2026 11:30 18,5 68,5 0 0 199 54,4 1002,8
46 San Rafael 01-09-2026 11:15 18,1 73,3 0 0,5 195 51,9 1003
45 San Rafael 01-09-2026 11:00 17,2 72,7 0 0,5 178 51,9 1003,2
44 San Rafael 01-09-2026 10:45 17,4 73,3 0 0 167 51,9 1003
43 San Rafael 01-09-2026 10:30 16,3 74,5 0 0 173 50,6 1002,9
42 San Rafael 01-09-2026 10:15 16,5 77 0 0 170 50,6 1003,2
41 San Rafael 01-09-2026 10:00 15,2 81,1 0 0,5 170 50,6 1003,5
40 San Rafael 01-09-2026 09:45 15,1 81,1 0 0 69 49,4 1003,6
39 San Rafael 01-09-2026 09:30 14,6 83,1 0 0 69 48,1 1003,8
38 San Rafael 01-09-2026 09:15 13,4 83,8 0 0 69 46,9 1003,9
37 San Rafael 01-09-2026 09:00 14,5 82,1 0 0 69 46,9 1003,7
36 San Rafael 01-09-2026 08:45 13,4 88,9 0 0 69 69,4 1003,8
35 San Rafael 01-09-2026 08:30 12 92,6 0 0 69 145,6 1003,6
34 San Rafael 01-09-2026 08:15 10,8 97,4 0 0 69 38,1 1003,8
33 San Rafael 01-09-2026 08:00 9,8 98,6 0 0 69 193,1 1003,7
32 San Rafael 01-09-2026 07:45 7,5 99,2 0 0 69 143,1 1003,4
31 San Rafael 01-09-2026 07:30 5,9 99,1 0 0 69 14,4 1003,7
30 San Rafael 01-09-2026 07:15 6,1 99 0 0 69 5,6 1003,5
29 San Rafael 01-09-2026 07:00 6,1 99,1 0 0 69 1,9 1003,4
28 San Rafael 01-09-2026 06:45 6,5 99,1 0 0 69 0,6 1003,3
27 San Rafael 01-09-2026 06:30 6,9 98,8 0 0 69 0,6 1003,4
26 San Rafael 01-09-2026 06:15 7,6 98,6 0 0 69 0,6 1003,4
25 San Rafael 01-09-2026 06:00 7,8 98,6 0 0 69 0,6 1003,5
24 San Rafael 01-09-2026 05:45 7,9 98,6 0 0 69 0,6 1003,2
23 San Rafael 01-09-2026 05:30 8 98,6 0 0 69 0,6 1003
22 San Rafael 01-09-2026 05:15 7,9 98,5 0 0 69 0,6 1003,2
21 San Rafael 01-09-2026 05:00 8 98,4 0 0 69 0,6 1003
20 San Rafael 01-09-2026 04:45 8,1 98,2 0 0 69 0,6 1003,2
19 San Rafael 01-09-2026 04:30 8 98 0 0 69 0,6 1003,1
18 San Rafael 01-09-2026 04:15 7,8 97,7 0 0 69 0,6 1003,2
17 San Rafael 01-09-2026 04:00 7,6 97,4 0 0 69 0,6 1003,1
16 San Rafael 01-09-2026 03:45 8,1 97,1 0 0 69 0,6 1003,1
15 San Rafael 01-09-2026 03:30 8,6 96,7 0 0 69 0,6 1003
14 San Rafael 01-09-2026 03:15 8,9 96,4 0 0 69 0,6 1003,3
13 San Rafael 01-09-2026 03:00 9,1 96,1 0 0 69 0,6 1003,4
12 San Rafael 01-09-2026 02:45 9 95,7 0 0 69 0,6 1003,3
11 San Rafael 01-09-2026 02:30 9,3 95,6 0 0 69 0,6 1003,4
10 San Rafael 01-09-2026 02:15 9,4 95,7 0 0 69 0,6 1003,9
9 San Rafael 01-09-2026 02:00 9,7 96,2 0 0 69 0,6 1003,9
8 San Rafael 01-09-2026 01:45 9,5 96,5 0 0 69 0,6 1004,4
7 San Rafael 01-09-2026 01:30 9,2 96,9 0 0 69 0,6 1004,4
6 San Rafael 01-09-2026 01:15 9,4 96,9 0 0 69 0,6 1004,3
5 San Rafael 01-09-2026 01:00 9,4 96,7 0 0 69 0,6 1004,3
4 San Rafael 01-09-2026 00:45 9,3 96,5 0 0 69 0,6 1004,3
3 San Rafael 01-09-2026 00:30 9,1 96,3 0 0 69 0,6 1003,9
2 San Rafael 01-09-2026 00:15 9,4 96,3 0 0 69 0,6 1004,1
1 San Rafael 01-09-2026 00:00 9,2 95,6 0 0 69 0,6 1004,5